Time;durP1;ratioP1;P1;durP2;ratioP2;P2;SDS_P1;SDS_P2;PMS_P1;PMS_P2;Temp;Humidity;BMP_temperature;BMP_pressure;BME280_temperature;BME280_humidity;BME280_pressure;Samples;Min_cycle;Max_cycle;Signal;HPM_P1;HPM_P2
2021/07/03 00:29:17;;;;;;;;;9.25;9.25;;;;;21.94;60.36;101121.81;6252032;22;45640;-94
2021/07/03 00:35:51;;;;;;;;;;;;;;;;;;;;;
2021/07/03 00:39:10;;;;;;;;;;;;;;;;;;;;;
2021/07/03 01:13:31;;;;;;;;;;;;;;;;;;;;;
2021/07/03 01:26:55;;;;;;;;;14.25;13.50;;;;;21.13;61.64;101039.28;5747360;24;44911;-95
2021/07/03 02:17:46;;;;;;;;;;;;;;;;;;;;;
2021/07/03 02:24:35;;;;;;;;;;;;;;;;;;;;;
2021/07/03 02:27:32;;;;;;;;;;;;;;;;;;;;;
2021/07/03 02:33:08;;;;;;;;;15.25;11.00;;;;;20.99;63.47;101059.84;6132589;23;45686;-94
2021/07/03 02:36:28;;;;;;;;;;;;;;;;;;;;;
2021/07/03 02:39:20;;;;;;;;;14.25;12.00;;;;;21.39;63.40;101133.97;6133715;23;45628;-94
2021/07/03 02:42:14;;;;;;;;;11.25;10.50;;;;;21.10;63.97;101082.44;6117375;22;45491;-93
2021/07/03 02:59:24;;;;;;;;;;;;;;;;;;;;;
2021/07/03 03:02:32;;;;;;;;;;;;;;;;;;;;;
2021/07/03 03:06:00;;;;;;;;;;;;;;;;;;;;;
2021/07/03 03:09:04;;;;;;;;;;;;;;;;;;;;;
2021/07/03 03:11:47;;;;;;;;;;;;;;;;;;;;;
2021/07/03 03:15:08;;;;;;;;;;;;;;;;;;;;;
2021/07/03 03:17:54;;;;;;;;;;;;;;;;;;;;;
2021/07/03 03:20:30;;;;;;;;;14.50;13.50;;;;;20.53;64.05;101027.25;5832789;24;68123;-93
2021/07/03 03:22:59;;;;;;;;;11.50;10.75;;;;;20.54;64.38;101030.81;5854938;24;45205;-94
2021/07/03 03:41:35;;;;;;;;;;;;;;;;;;;;;
2021/07/03 04:09:04;;;;;;;;;;;;;;;;;;;;;
2021/07/03 04:11:42;;;;;;;;;11.00;10.75;;;;;20.18;64.95;101025.41;5105261;27;45567;-94
2021/07/03 04:14:10;;;;;;;;;10.50;10.50;;;;;20.25;65.43;101051.91;5105874;27;45215;-95
2021/07/03 04:16:39;;;;;;;;;11.00;10.75;;;;;20.13;65.92;101034.06;5122781;27;44888;-94
2021/07/03 04:19:21;;;;;;;;;;;;;;;;;;;;;
2021/07/03 04:22:00;;;;;;;;;11.75;11.00;;;;;20.46;65.82;101080.72;5105612;27;72131;-95
2021/07/03 04:25:12;;;;;;;;;12.25;12.25;;;;;20.12;65.42;101038.66;5106048;27;44864;-95
2021/07/03 04:32:20;;;;;;;;;;;;;;;;;;;;;
2021/07/03 04:35:10;;;;;;;;;10.25;7.50;;;;;20.17;65.27;101043.66;4997543;28;45249;-95
2021/07/03 04:38:44;;;;;;;;;;;;;;;;;;;;;
2021/07/03 04:41:37;;;;;;;;;;;;;;;;;;;;;
2021/07/03 04:44:23;;;;;;;;;14.25;11.00;;;;;20.25;65.35;101067.38;5043225;28;73728;-95
2021/07/03 04:47:36;;;;;;;;;14.75;11.50;;;;;20.21;65.90;101066.84;5012783;28;45733;-95
2021/07/03 04:50:15;;;;;;;;;14.50;12.00;;;;;20.14;65.77;101054.88;5042568;28;45428;-95
2021/07/03 04:53:07;;;;;;;;;;;;;;;;;;;;;
2021/07/03 04:55:45;;;;;;;;;;;;;;;;;;;;;
2021/07/03 05:02:22;;;;;;;;;;;;;;;;;;;;;
2021/07/03 05:05:21;;;;;;;;;;;;;;;;;;;;;
2021/07/03 05:11:59;;;;;;;;;11.50;9.50;;;;;20.20;66.09;101059.69;5039507;28;45583;-95
2021/07/03 05:15:38;;;;;;;;;11.00;11.00;;;;;20.38;66.19;101084.25;5053884;28;45200;-95
2021/07/03 05:19:11;;;;;;;;;;;;;;;;;;;;;
2021/07/03 05:51:07;;;;;;;;;;;;;;;;;;;;;
2021/07/03 05:53:57;;;;;;;;;16.75;11.25;;;;;20.19;66.50;101025.25;6329108;22;45483;-95
2021/07/03 05:57:27;;;;;;;;;;;;;;;;;;;;;
2021/07/03 05:59:40;;;;;;;;;;;;;;;;;;;;;
2021/07/03 06:02:42;;;;;;;;;;;;;;;;;;;;;
2021/07/03 06:16:33;;;;;;;;;;;;;;;;;;;;;
2021/07/03 06:23:41;;;;;;;;;13.00;12.00;;;;;20.60;67.59;101043.84;5826914;24;45493;-94
2021/07/03 06:46:53;;;;;;;;;;;;;;;;;;;;;
2021/07/03 06:50:28;;;;;;;;;;;;;;;;;;;;;
2021/07/03 07:04:25;;;;;;;;;;;;;;;;;;;;;
2021/07/03 07:08:07;;;;;;;;;;;;;;;;;;;;;
2021/07/03 07:14:07;;;;;;;;;15.00;13.50;;;;;21.06;66.66;101047.28;5941607;24;44593;-95
2021/07/03 07:16:36;;;;;;;;;15.75;14.25;;;;;21.15;67.30;101050.91;5918027;24;46707;-94
2021/07/03 07:19:32;;;;;;;;;;;;;;;;;;;;;
2021/07/03 07:22:39;;;;;;;;;13.00;11.50;;;;;21.62;66.55;101120.66;5935144;24;68185;-94
2021/07/03 07:25:18;;;;;;;;;;;;;;;;;;;;;
2021/07/03 07:28:33;;;;;;;;;16.50;14.50;;;;;21.89;66.28;101172.53;5861609;24;74558;-95
2021/07/03 07:31:19;;;;;;;;;;;;;;;;;;;;;
2021/07/03 08:32:56;;;;;;;;;12.00;9.50;;;;;21.58;65.40;101069.22;5721623;22;15131734;-94
2021/07/03 08:35:27;;;;;;;;;10.25;10.25;;;;;21.90;65.59;101114.97;6390442;22;45321;-95
2021/07/03 08:38:16;;;;;;;;;11.00;10.00;;;;;21.49;65.60;101057.38;6362825;22;47856;-94
2021/07/03 08:40:39;;;;;;;;;15.25;11.00;;;;;22.02;66.21;101139.25;6356969;22;45231;-95
2021/07/03 08:43:05;;;;;;;;;12.00;12.00;;;;;21.62;64.39;101082.41;6332047;22;45125;-93
2021/07/03 08:45:31;;;;;;;;;7.00;7.00;;;;;21.98;63.83;101136.84;6332263;22;45124;-95
2021/07/03 08:47:57;;;;;;;;;12.00;10.75;;;;;21.58;64.16;101072.78;6331925;22;47138;-95
2021/07/03 08:50:30;;;;;;;;;10.00;10.00;;;;;21.51;64.17;101077.22;6331134;22;45194;-95
2021/07/03 08:53:05;;;;;;;;;10.25;9.00;;;;;21.52;63.74;101085.22;6305563;22;45151;-94
2021/07/03 08:55:35;;;;;;;;;9.75;8.25;;;;;21.54;64.10;101085.03;6331965;22;44732;-95
2021/07/03 08:58:09;;;;;;;;;11.50;10.75;;;;;21.53;65.10;101086.09;6330586;22;47098;-95
2021/07/03 09:00:44;;;;;;;;;12.25;11.00;;;;;21.47;64.10;101089.47;6331447;22;44932;-95
2021/07/03 09:03:22;;;;;;;;;10.75;9.25;;;;;21.49;64.95;101095.63;6331950;22;44823;-96
2021/07/03 09:05:55;;;;;;;;;12.25;11.00;;;;;21.40;64.50;101078.34;6332202;22;45384;-94
2021/07/03 09:08:28;;;;;;;;;13.25;12.25;;;;;21.89;64.84;101146.03;6330232;22;46813;-95
2021/07/03 09:11:06;;;;;;;;;16.50;14.50;;;;;21.44;64.52;101073.41;6329438;22;45269;-95
2021/07/03 09:13:38;;;;;;;;;10.75;10.00;;;;;21.54;65.17;101085.03;6333082;22;45290;-94
2021/07/03 09:16:05;;;;;;;;;11.75;11.75;;;;;21.60;65.10;101094.53;6332366;22;45247;-95
2021/07/03 09:18:31;;;;;;;;;17.50;15.25;;;;;21.78;65.51;101132.69;6331652;22;47715;-95
2021/07/03 09:21:08;;;;;;;;;12.75;10.25;;;;;21.51;65.53;101085.41;6330504;22;45526;-94
2021/07/03 09:23:36;;;;;;;;;12.75;12.25;;;;;21.65;65.58;101090.28;6305559;22;44733;-95
2021/07/03 09:26:14;;;;;;;;;13.25;11.75;;;;;22.31;65.85;101198.16;6334430;22;45158;-95
2021/07/03 09:28:45;;;;;;;;;10.00;10.00;;;;;21.91;65.64;101129.47;6306326;22;46846;-94
2021/07/03 09:31:17;;;;;;;;;15.75;11.50;;;;;21.59;65.79;101081.84;6326086;22;45200;-95
2021/07/03 09:33:48;;;;;;;;;11.50;11.00;;;;;21.64;66.00;101074.91;6320688;22;45208;-94
2021/07/03 09:36:31;;;;;;;;;9.75;8.75;;;;;21.88;65.70;101125.19;6319080;22;45426;-95
2021/07/03 09:39:01;;;;;;;;;11.25;11.25;;;;;22.20;66.26;101170.09;6318917;22;48130;-94
2021/07/03 09:41:34;;;;;;;;;12.25;11.75;;;;;21.64;65.76;101088.56;6318821;22;44888;-94
2021/07/03 09:44:10;;;;;;;;;11.50;11.50;;;;;22.13;65.93;101160.81;6320713;22;44799;-95
2021/07/03 09:46:41;;;;;;;;;14.00;10.25;;;;;21.56;65.19;101085.75;6320956;22;45389;-94
2021/07/03 09:49:15;;;;;;;;;10.25;10.25;;;;;21.69;65.67;101109.94;6321826;22;47308;-93
2021/07/03 09:51:44;;;;;;;;;9.75;9.75;;;;;21.65;65.99;101111.25;6321883;22;45430;-94
2021/07/03 09:54:12;;;;;;;;;12.00;11.00;;;;;21.67;65.65;101114.69;6323764;22;45305;-94
2021/07/03 09:56:48;;;;;;;;;12.75;11.00;;;;;21.67;65.05;101117.44;6325805;22;44887;-95
2021/07/03 09:59:28;;;;;;;;;10.25;10.25;;;;;21.60;65.69;101111.75;6328361;22;47356;-94
2021/07/03 10:01:54;;;;;;;;;13.25;13.25;;;;;22.05;65.59;101185.41;6321152;22;45397;-94
2021/07/03 10:04:24;;;;;;;;;13.75;13.00;;;;;21.76;65.17;101154.69;6322638;22;45292;-94
2021/07/03 10:06:57;;;;;;;;;10.25;10.00;;;;;21.73;64.79;101149.56;6323641;22;44756;-94
2021/07/03 10:09:48;;;;;;;;;13.00;12.00;;;;;21.61;65.15;101123.53;6320702;22;47104;-93
2021/07/03 10:12:18;;;;;;;;;16.75;14.00;;;;;22.10;64.40;101216.69;6318582;22;45393;-93
2021/07/03 10:14:49;;;;;;;;;14.00;11.25;;;;;21.61;64.52;101123.53;6320007;22;45425;-95
2021/07/03 10:17:25;;;;;;;;;11.75;9.00;;;;;21.60;64.77;101111.75;6319409;22;45311;-95
2021/07/03 10:19:52;;;;;;;;;12.25;10.50;;;;;22.16;63.88;101197.94;6319343;22;47521;-95
2021/07/03 10:22:24;;;;;;;;;8.50;8.50;;;;;21.63;64.15;101107.84;6313337;22;45207;-95
2021/07/03 10:24:52;;;;;;;;;12.00;11.75;;;;;21.59;64.70;101099.09;6316615;22;45303;-95
2021/07/03 10:27:48;;;;;;;;;10.00;10.00;;;;;21.70;64.42;101118.97;6318268;22;45406;-94
2021/07/03 10:30:24;;;;;;;;;8.50;8.50;;;;;22.11;63.26;101182.00;6310445;22;46703;-95
2021/07/03 10:33:03;;;;;;;;;10.75;10.50;;;;;21.61;64.07;101104.41;6323172;22;45365;-93
2021/07/03 10:35:54;;;;;;;;;11.75;11.00;;;;;22.17;64.55;101195.03;6299621;22;44683;-94
2021/07/03 10:38:28;;;;;;;;;11.25;10.25;;;;;21.69;64.25;101114.50;6323116;22;44729;-94
2021/07/03 10:41:24;;;;;;;;;;;;;;;;;;;;;
2021/07/03 10:44:22;;;;;;;;;15.50;11.75;;;;;21.72;64.64;101109.59;6350465;22;72184;-94
2021/07/03 10:47:04;;;;;;;;;17.75;12.50;;;;;21.75;65.66;101113.88;6325637;22;44724;-93
2021/07/03 10:49:35;;;;;;;;;6.25;6.25;;;;;21.78;64.14;101114.38;6326267;22;45218;-94
2021/07/03 10:52:13;;;;;;;;;15.00;13.50;;;;;22.20;64.98;101155.53;6327181;22;45687;-93
2021/07/03 10:55:46;;;;;;;;;11.00;11.00;;;;;22.15;63.32;101145.09;6334179;22;44834;-94
2021/07/03 10:58:35;;;;;;;;;14.75;13.75;;;;;22.12;64.88;101118.97;6364645;22;45207;-93
2021/07/03 11:01:19;;;;;;;;;9.50;9.00;;;;;22.07;63.60;101093.97;6331909;22;44776;-93
2021/07/03 11:03:55;;;;;;;;;14.00;13.00;;;;;22.84;64.22;101228.91;6325622;22;46762;-93
2021/07/03 11:06:24;;;;;;;;;10.25;9.50;;;;;22.23;60.53;101114.19;6326955;22;45147;-94
2021/07/03 11:09:02;;;;;;;;;15.25;10.00;;;;;22.66;61.81;101191.59;6325385;22;45395;-94
2021/07/03 11:12:00;;;;;;;;;10.75;8.75;;;;;22.64;61.23;101192.78;6325511;22;45284;-94
2021/07/03 11:14:55;;;;;;;;;11.00;9.25;;;;;22.37;61.66;101137.31;6325804;22;46747;-94
2021/07/03 11:18:05;;;;;;;;;9.75;9.00;;;;;22.46;60.81;101150.00;6325827;22;44861;-94
2021/07/03 11:20:51;;;;;;;;;9.75;9.75;;;;;22.81;59.38;101224.66;6323181;22;45330;-94
2021/07/03 11:23:23;;;;;;;;;10.25;9.00;;;;;22.09;59.84;101102.88;6323790;22;45427;-94
2021/07/03 11:25:53;;;;;;;;;11.50;11.25;;;;;22.62;60.55;101183.88;6324511;22;46977;-93
2021/07/03 11:28:30;;;;;;;;;13.25;12.00;;;;;22.74;60.51;101204.44;6323796;22;44798;-95
2021/07/03 11:31:00;;;;;;;;;12.75;12.75;;;;;22.47;61.44;101170.88;6324260;22;45183;-94
2021/07/03 11:33:39;;;;;;;;;11.25;11.25;;;;;21.96;60.91;101083.38;6325272;22;45246;-95
2021/07/03 11:36:15;;;;;;;;;11.50;11.00;;;;;22.42;59.65;101157.69;6325207;22;46712;-94
2021/07/03 11:38:41;;;;;;;;;7.00;7.00;;;;;22.02;57.23;101090.03;6325218;22;45228;-94
2021/07/03 11:41:14;;;;;;;;;5.00;5.00;;;;;22.02;56.85;101090.91;6325706;22;45141;-94
2021/07/03 11:43:43;;;;;;;;;10.50;8.50;;;;;22.10;56.64;101095.56;6325991;22;44851;-94
2021/07/03 11:46:16;;;;;;;;;7.00;7.00;;;;;22.14;55.75;101099.63;6339497;22;46613;-93
2021/07/03 11:48:50;;;;;;;;;8.00;6.25;;;;;22.42;53.11;101160.44;6339579;22;44735;-94
2021/07/03 11:51:20;;;;;;;;;5.75;5.75;;;;;22.50;52.70;101137.69;6339185;22;44566;-93
2021/07/03 11:53:53;;;;;;;;;6.75;5.75;;;;;22.19;52.95;101075.38;6330839;22;44760;-93
2021/07/03 11:56:36;;;;;;;;;;;;;;;;;;;;;
2021/07/03 11:59:34;;;;;;;;;7.25;5.00;;;;;22.62;50.51;101102.63;6352692;22;72202;-95
2021/07/03 12:02:28;;;;;;;;;5.50;5.50;;;;;23.23;50.68;101184.44;6324306;22;44885;-94
2021/07/03 12:05:24;;;;;;;;;6.75;6.25;;;;;22.79;51.79;101099.91;6325157;22;45211;-93
2021/07/03 12:07:57;;;;;;;;;5.75;5.00;;;;;22.81;52.51;101095.97;6344826;22;45621;-95
2021/07/03 12:10:35;;;;;;;;;6.25;6.25;;;;;23.50;49.93;101190.56;6325292;22;44804;-94
2021/07/03 12:13:05;;;;;;;;;7.25;6.00;;;;;22.94;49.82;101092.69;6325020;22;45678;-95
2021/07/03 12:15:39;;;;;;;;;8.75;7.00;;;;;23.33;51.01;101170.56;6324720;22;45266;-93
2021/07/03 12:18:05;;;;;;;;;7.00;6.25;;;;;22.89;52.01;101084.16;6323493;22;47216;-94
2021/07/03 12:21:29;;;;;;;;;;;;;;;;;;;;;
2021/07/03 12:46:33;;;;;;;;;3.50;3.50;;;;;22.79;50.88;101087.09;6350941;22;44975;-94
2021/07/03 12:49:02;;;;;;;;;7.00;6.00;;;;;23.10;50.11;101146.63;6347648;22;45367;-93
2021/07/03 12:51:44;;;;;;;;;5.00;5.00;;;;;22.54;50.28;101075.28;6345401;22;45281;-94
2021/07/03 12:54:16;;;;;;;;;6.00;6.00;;;;;22.71;51.21;101104.38;6347550;22;46743;-94
2021/07/03 12:56:58;;;;;;;;;9.50;7.50;;;;;22.77;50.75;101116.50;6348132;22;44695;-94
2021/07/03 12:59:39;;;;;;;;;3.25;3.25;;;;;23.14;50.63;101166.28;6342908;22;45137;-94
2021/07/03 13:02:19;;;;;;;;;5.50;5.00;;;;;22.55;51.89;101071.53;6353749;22;44895;-94
2021/07/03 13:04:52;;;;;;;;;5.75;4.25;;;;;22.51;51.04;101061.94;6357348;22;45573;-94
2021/07/03 13:07:32;;;;;;;;;;;;;;;;;;;;;
2021/07/03 13:10:13;;;;;;;;;;;;;;;;;;;;;
2021/07/03 13:12:39;;;;;;;;;6.00;6.00;;;;;22.39;51.56;101039.53;6366330;22;69313;-93
2021/07/03 13:15:06;;;;;;;;;6.75;5.00;;;;;22.89;52.19;101139.78;6346196;22;46951;-94
2021/07/03 13:17:32;;;;;;;;;5.25;4.75;;;;;22.34;52.20;101047.38;6323470;22;45069;-95
2021/07/03 13:19:58;;;;;;;;;10.50;8.00;;;;;22.81;53.16;101126.09;6345498;22;45376;-95
2021/07/03 13:22:23;;;;;;;;;6.75;6.00;;;;;22.31;53.54;101040.38;6343137;22;45313;-94
2021/07/03 13:24:49;;;;;;;;;5.00;5.00;;;;;22.76;54.72;101106.59;6344198;22;46971;-94
2021/07/03 13:27:15;;;;;;;;;9.75;9.75;;;;;22.44;53.63;101053.56;6344691;22;45533;-93
2021/07/03 13:29:41;;;;;;;;;4.75;4.25;;;;;22.47;54.86;101041.41;6344921;22;45389;-94
2021/07/03 13:32:07;;;;;;;;;6.75;5.50;;;;;22.92;54.08;101129.50;6348700;22;45279;-94
2021/07/03 13:34:38;;;;;;;;;6.00;6.00;;;;;22.86;52.97;101120.09;6348019;22;47478;-93
2021/07/03 13:37:06;;;;;;;;;5.25;4.50;;;;;22.57;54.49;101056.63;6343981;22;45286;-94
2021/07/03 13:39:32;;;;;;;;;7.00;7.00;;;;;22.55;54.54;101057.84;6343412;22;45357;-93
2021/07/03 13:41:58;;;;;;;;;8.75;7.25;;;;;22.92;54.41;101116.66;6342730;22;45292;-94
2021/07/03 13:44:30;;;;;;;;;6.00;5.00;;;;;22.46;54.20;101040.56;6344246;22;46603;-94
2021/07/03 13:46:55;;;;;;;;;7.00;5.75;;;;;23.06;52.96;101134.28;6345657;22;45267;-95
2021/07/03 13:49:29;;;;;;;;;6.25;5.25;;;;;22.70;54.33;101090.84;6340875;22;45348;-94
2021/07/03 13:51:59;;;;;;;;;7.75;6.75;;;;;22.72;53.85;101083.31;6347836;22;45538;-95
2021/07/03 13:55:21;;;;;;;;;;;;;;;;;;;;;
2021/07/03 13:58:25;;;;;;;;;5.50;5.00;;;;;22.52;54.51;101034.41;6347142;22;72513;-94
2021/07/03 14:01:52;;;;;;;;;7.75;6.00;;;;;22.83;55.22;101074.75;6336864;22;45379;-94
2021/07/03 14:04:09;;;;;;;;;6.75;5.75;;;;;22.87;55.22;101081.59;6338407;22;45371;-94
2021/07/03 14:07:30;;;;;;;;;;;;;;;;;;;;;
2021/07/03 14:14:42;;;;;;;;;;;;;;;;;;;;;
2021/07/03 14:25:07;;;;;;;;;4.00;3.50;;;;;23.43;54.48;101135.59;5990031;23;44873;-96
2021/07/03 15:37:49;;;;;;;;;;;;;;;;;;;;;
2021/07/03 15:42:10;;;;;;;;;;;;;;;;;;;;;
2021/07/03 15:49:02;;;;;;;;;;;;;;;;;;;;;
2021/07/03 16:36:10;;;;;;;;;1.75;1.75;;;;;22.75;59.56;100972.66;5495333;22;17889480;-94
2021/07/03 16:38:59;;;;;;;;;4.75;3.00;;;;;22.73;59.36;100962.72;6230519;22;45983;-94
2021/07/03 16:41:44;;;;;;;;;4.50;2.75;;;;;22.75;58.88;100973.50;6259866;22;44787;-96
2021/07/03 16:44:10;;;;;;;;;5.50;4.25;;;;;22.76;59.38;100968.84;6236356;22;45384;-94
2021/07/03 16:46:40;;;;;;;;;3.00;3.00;;;;;22.67;59.29;100955.19;6235121;22;46642;-95
2021/07/03 16:49:26;;;;;;;;;5.25;4.25;;;;;22.80;60.09;100962.88;6236946;22;45385;-95
2021/07/03 16:52:10;;;;;;;;;;;;;;;;;;;;;
2021/07/03 16:54:40;;;;;;;;;5.25;4.00;;;;;23.29;59.84;101044.06;6264591;22;69421;-95
2021/07/03 16:57:59;;;;;;;;;4.00;4.00;;;;;23.10;59.85;101009.69;6242466;22;46875;-95
2021/07/03 17:00:25;;;;;;;;;3.75;3.75;;;;;22.86;59.78;100958.59;6251215;22;44824;-94
2021/07/03 17:03:01;;;;;;;;;5.00;5.00;;;;;23.41;59.28;101047.25;6251195;22;44776;-96
2021/07/03 17:05:54;;;;;;;;;5.25;5.00;;;;;22.83;59.75;100951.56;6237224;22;45467;-95
2021/07/03 17:08:20;;;;;;;;;5.00;5.00;;;;;23.31;58.81;101020.09;6236125;22;46640;-95
2021/07/03 17:11:10;;;;;;;;;;;;;;;;;;;;;
2021/07/03 17:13:47;;;;;;;;;4.00;4.00;;;;;23.09;60.07;100968.75;6305027;22;68935;-95
2021/07/03 17:16:24;;;;;;;;;;;;;;;;;;;;;
2021/07/03 17:19:02;;;;;;;;;;;;;;;;;;;;;
2021/07/03 17:21:30;;;;;;;;;5.25;5.00;;;;;22.99;60.03;100936.09;6323099;22;73947;-95
2021/07/03 17:24:02;;;;;;;;;3.75;3.25;;;;;23.55;59.56;101025.59;6327097;22;44757;-96
2021/07/03 17:26:37;;;;;;;;;5.00;5.00;;;;;22.99;58.84;100941.59;6326003;22;45381;-95
2021/07/03 17:29:30;;;;;;;;;3.75;3.00;;;;;23.24;58.92;100985.34;6324957;22;46634;-96
2021/07/03 17:32:10;;;;;;;;;3.00;3.00;;;;;23.29;58.17;101007.56;6319200;22;45445;-95
2021/07/03 17:35:24;;;;;;;;;5.50;4.00;;;;;23.14;58.41;100986.38;6317935;22;45186;-95
2021/07/03 17:37:25;;;;;;;;;4.50;4.50;;;;;23.30;59.57;101004.69;6312930;22;44872;-95
2021/07/03 17:39:50;;;;;;;;;6.00;4.75;;;;;22.91;59.59;100936.16;6319422;22;46888;-96
2021/07/03 17:42:20;;;;;;;;;4.50;4.50;;;;;23.26;60.13;101010.66;6317600;22;45226;-95
2021/07/03 17:44:48;;;;;;;;;3.75;3.75;;;;;23.32;58.95;101020.91;6345290;22;45112;-95
2021/07/03 17:47:14;;;;;;;;;5.50;5.50;;;;;22.83;60.11;100935.13;6339331;22;45195;-96
2021/07/03 17:49:43;;;;;;;;;5.00;5.00;;;;;22.91;58.75;100958.06;6334563;22;47458;-95
2021/07/03 17:52:09;;;;;;;;;5.00;5.00;;;;;22.95;58.98;100968.47;6336022;22;45376;-94
2021/07/03 17:54:35;;;;;;;;;3.50;3.50;;;;;22.88;59.02;100954.63;6334886;22;45357;-96
2021/07/03 17:57:02;;;;;;;;;4.75;4.00;;;;;22.87;59.75;100949.34;6308046;22;45289;-95
2021/07/03 17:59:33;;;;;;;;;4.75;4.75;;;;;23.21;58.82;101007.63;6311943;22;47864;-95
2021/07/03 18:02:00;;;;;;;;;7.00;7.00;;;;;22.85;58.84;100940.44;6312502;22;45550;-95
2021/07/03 18:04:30;;;;;;;;;8.25;5.00;;;;;22.89;58.87;100941.81;6312913;22;45224;-94
2021/07/03 18:06:56;;;;;;;;;6.00;4.50;;;;;22.93;59.18;100954.09;6312605;22;45621;-95
2021/07/03 18:09:22;;;;;;;;;7.00;5.25;;;;;22.85;58.94;100935.81;6314126;22;47012;-94
2021/07/03 18:11:58;;;;;;;;;;;;;;;;;;;;;
2021/07/03 18:14:24;;;;;;;;;3.50;3.50;;;;;23.22;59.38;101001.09;6314781;22;68771;-96
2021/07/03 18:16:50;;;;;;;;;7.00;5.00;;;;;23.39;59.61;101038.34;6339636;22;45440;-95
2021/07/03 18:19:19;;;;;;;;;7.00;5.00;;;;;22.85;59.61;100949.50;6313198;22;46944;-95
2021/07/03 18:21:47;;;;;;;;;4.25;4.25;;;;;22.73;58.88;100920.81;6315187;22;44893;-95
2021/07/03 18:24:16;;;;;;;;;3.00;3.00;;;;;22.72;59.23;100930.03;6314028;22;45344;-95
2021/07/03 18:26:42;;;;;;;;;3.25;3.25;;;;;23.00;58.90;100978.88;6321184;22;44912;-96
2021/07/03 18:29:09;;;;;;;;;6.00;4.50;;;;;23.30;58.53;101026.59;6352805;22;46552;-93
2021/07/03 18:31:36;;;;;;;;;5.50;3.25;;;;;22.75;58.51;100954.31;6352286;22;45231;-94
2021/07/03 18:34:02;;;;;;;;;3.75;3.00;;;;;22.75;58.96;100940.63;6343304;22;45414;-95
2021/07/03 18:36:28;;;;;;;;;4.00;4.00;;;;;23.10;58.55;101000.59;6314075;22;45227;-96
2021/07/03 18:38:53;;;;;;;;;4.00;2.25;;;;;22.71;58.81;100937.41;6343321;22;45330;-96
2021/07/03 18:41:19;;;;;;;;;3.50;3.00;;;;;22.59;58.52;100911.44;6320676;22;44664;-95
2021/07/03 18:43:45;;;;;;;;;3.25;3.25;;;;;22.64;58.48;100925.44;6310698;22;45266;-95
2021/07/03 18:46:10;;;;;;;;;3.50;3.50;;;;;22.94;59.28;100988.66;6310665;22;45247;-95
2021/07/03 18:48:36;;;;;;;;;3.75;2.75;;;;;22.61;58.40;100934.00;6311184;22;46869;-96
2021/07/03 18:51:06;;;;;;;;;3.00;3.00;;;;;22.54;58.84;100922.06;6310722;22;45218;-96
2021/07/03 18:53:33;;;;;;;;;3.25;2.50;;;;;22.57;59.12;100930.75;6310350;22;45180;-95
2021/07/03 18:56:00;;;;;;;;;8.00;7.00;;;;;22.55;58.84;100923.75;6336022;22;45210;-95
2021/07/03 18:58:25;;;;;;;;;10.00;7.00;;;;;22.56;59.33;100926.31;6332955;22;46923;-95
2021/07/03 19:00:51;;;;;;;;;12.25;11.25;;;;;22.72;59.06;100971.09;6335616;22;45459;-96
2021/07/03 19:03:17;;;;;;;;;8.50;8.00;;;;;22.56;58.88;100933.69;6311660;22;45269;-95
2021/07/03 19:05:42;;;;;;;;;5.00;5.00;;;;;22.72;59.37;100971.09;6309517;22;45158;-95
2021/07/03 19:08:08;;;;;;;;;4.00;4.00;;;;;22.87;58.65;100993.97;6307521;22;46645;-95
2021/07/03 19:10:34;;;;;;;;;4.00;3.75;;;;;22.53;59.12;100939.50;6333591;22;45178;-95
2021/07/03 19:13:02;;;;;;;;;5.75;5.25;;;;;22.54;59.07;100944.78;6308860;22;45417;-94
2021/07/03 19:15:28;;;;;;;;;4.00;4.00;;;;;22.54;59.25;100941.22;6308159;22;45464;-95
2021/07/03 19:17:53;;;;;;;;;4.00;4.00;;;;;22.47;59.72;100919.16;6308145;22;46627;-96
2021/07/03 19:20:21;;;;;;;;;2.00;2.00;;;;;22.78;59.58;100967.66;6309120;22;45354;-96
2021/07/03 19:22:47;;;;;;;;;5.75;3.50;;;;;22.66;59.05;100948.00;6307457;22;45285;-96
2021/07/03 19:25:17;;;;;;;;;4.00;4.00;;;;;22.89;59.37;100991.09;6307303;22;45222;-95
2021/07/03 19:27:44;;;;;;;;;4.50;3.25;;;;;22.74;58.99;100977.25;6306802;22;46888;-96
2021/07/03 19:30:14;;;;;;;;;4.75;4.75;;;;;22.50;59.54;100929.75;6306432;22;45500;-96
2021/07/03 19:32:40;;;;;;;;;5.25;5.00;;;;;22.87;59.60;100996.72;6307464;22;45211;-95
2021/07/03 19:35:07;;;;;;;;;3.25;3.25;;;;;22.48;59.21;100937.28;6306145;22;45481;-95
2021/07/03 19:37:33;;;;;;;;;4.75;3.50;;;;;22.72;59.37;100982.03;6308493;22;47277;-94
2021/07/03 19:39:59;;;;;;;;;5.75;4.25;;;;;22.79;59.78;101002.22;6308810;22;45415;-95
2021/07/03 19:42:26;;;;;;;;;5.75;5.00;;;;;22.50;59.37;100948.91;6308874;22;45192;-96
2021/07/03 19:44:55;;;;;;;;;5.00;5.00;;;;;22.97;59.43;101040.34;6309208;22;45277;-93
2021/07/03 19:47:20;;;;;;;;;4.50;4.50;;;;;22.61;59.53;100977.78;6310619;22;46754;-94
2021/07/03 19:49:46;;;;;;;;;6.00;6.00;;;;;22.40;59.62;100937.25;6339775;22;45214;-95
2021/07/03 19:52:12;;;;;;;;;6.00;5.00;;;;;22.62;59.79;100973.16;6317113;22;44563;-92
2021/07/03 19:54:41;;;;;;;;;7.00;5.00;;;;;22.37;59.92;100943.94;6360260;22;44814;-94
2021/07/03 19:57:08;;;;;;;;;12.00;9.00;;;;;22.39;59.96;100941.03;6333841;22;47171;-95
2021/07/03 19:59:34;;;;;;;;;10.25;9.00;;;;;22.38;59.55;100944.81;6351127;22;45656;-96
2021/07/03 20:02:00;;;;;;;;;9.00;8.00;;;;;22.70;59.97;100993.16;6313103;22;45455;-95
2021/07/03 20:04:26;;;;;;;;;6.25;6.25;;;;;22.56;60.09;100969.25;6338719;22;45445;-96
2021/07/03 20:06:52;;;;;;;;;7.25;6.25;;;;;22.33;60.15;100936.25;6311005;22;47899;-96
2021/07/03 20:09:23;;;;;;;;;8.75;7.50;;;;;22.34;60.61;100944.28;6311349;22;45224;-94
2021/07/03 20:11:56;;;;;;;;;7.75;6.50;;;;;22.66;60.30;101000.00;6311317;22;45208;-95
2021/07/03 20:14:29;;;;;;;;;7.00;7.00;;;;;22.30;60.41;100950.25;6309653;22;45510;-96
2021/07/03 20:16:57;;;;;;;;;7.00;7.00;;;;;22.27;60.73;100943.25;6308205;22;47026;-96
2021/07/03 20:19:24;;;;;;;;;6.25;5.00;;;;;22.25;60.42;100945.31;6308600;22;44924;-96
2021/07/03 20:21:55;;;;;;;;;5.75;5.75;;;;;22.30;60.76;100955.72;6308701;22;45194;-95
2021/07/03 20:24:22;;;;;;;;;7.50;7.50;;;;;22.31;60.76;100960.19;6308341;22;45522;-96
2021/07/03 20:26:49;;;;;;;;;6.00;6.00;;;;;22.31;60.75;100968.38;6334944;22;46616;-95
2021/07/03 20:29:15;;;;;;;;;5.50;5.50;;;;;22.27;63.16;100967.88;6311724;22;45369;-93
2021/07/03 20:31:45;;;;;;;;;6.75;4.75;;;;;22.19;63.84;100970.59;6336540;22;45492;-96
2021/07/03 20:34:12;;;;;;;;;5.50;4.00;;;;;22.40;63.64;101035.72;6309274;22;45570;-96
2021/07/03 20:36:41;;;;;;;;;5.00;5.00;;;;;22.19;64.56;101006.16;6310870;22;47024;-95
2021/07/03 20:39:07;;;;;;;;;5.25;5.25;;;;;21.94;65.05;100979.66;6308691;22;45591;-96
2021/07/03 20:41:33;;;;;;;;;4.00;3.00;;;;;22.11;64.99;101015.19;6337235;22;45493;-96
2021/07/03 20:44:00;;;;;;;;;6.00;4.75;;;;;21.90;65.43;100991.94;6310572;22;45496;-94
2021/07/03 20:46:25;;;;;;;;;4.00;3.00;;;;;22.27;65.80;101071.81;6338420;22;46669;-94
2021/07/03 20:48:54;;;;;;;;;4.25;4.25;;;;;22.18;66.16;101045.47;6329747;22;45455;-95
2021/07/03 20:51:27;;;;;;;;;5.25;5.25;;;;;21.74;66.71;100975.53;6331899;22;44716;-96
2021/07/03 20:53:56;;;;;;;;;7.25;5.00;;;;;21.60;66.92;100958.75;6321298;22;45224;-96
2021/07/03 20:56:22;;;;;;;;;4.00;4.00;;;;;21.88;67.45;100987.69;6315364;22;47192;-96
2021/07/03 20:58:56;;;;;;;;;4.75;4.75;;;;;21.67;67.03;100972.59;6315951;22;45362;-95
2021/07/03 21:01:26;;;;;;;;;6.00;6.00;;;;;21.82;67.63;100989.19;6318121;22;45354;-95
2021/07/03 21:04:02;;;;;;;;;;;;;;;;;;;;;
2021/07/03 21:06:33;;;;;;;;;4.75;4.50;;;;;21.51;68.37;100952.38;6318425;22;74566;-96
2021/07/03 21:09:06;;;;;;;;;7.50;6.00;;;;;21.58;68.14;100965.38;6318900;22;45585;-96
2021/07/03 21:11:32;;;;;;;;;6.25;6.25;;;;;21.53;68.24;100957.69;6316530;22;45196;-95
2021/07/03 21:14:02;;;;;;;;;5.75;5.75;;;;;21.71;68.32;100993.13;6320029;22;45356;-96
2021/07/03 21:16:31;;;;;;;;;6.00;6.00;;;;;22.01;68.60;101044.59;6316375;22;47194;-94
2021/07/03 21:19:04;;;;;;;;;8.50;5.25;;;;;21.34;68.31;100931.50;6318486;22;45094;-95
2021/07/03 21:21:50;;;;;;;;;8.25;7.00;;;;;21.34;68.73;100948.75;6318713;22;45281;-96
2021/07/03 21:24:28;;;;;;;;;8.00;7.75;;;;;21.62;68.87;100994.97;6318865;22;45155;-95
2021/07/03 21:27:05;;;;;;;;;7.75;6.75;;;;;21.33;69.11;100947.03;6344090;22;45643;-96
2021/07/03 21:29:41;;;;;;;;;;;;;;;;;;;;;
2021/07/03 21:32:19;;;;;;;;;8.50;7.50;;;;;21.65;69.17;101005.56;6318731;22;68108;-95
2021/07/03 21:34:48;;;;;;;;;7.00;7.00;;;;;21.28;69.51;100945.84;6317651;22;45135;-95